createdAt,value
2023-01-25T00:00:12.001Z,1035.46
2023-01-25T00:00:25.991Z,1035.45
2023-01-25T00:00:40.029Z,1035.44
2023-01-25T00:00:54.018Z,1035.44
2023-01-25T00:01:08.013Z,1035.43
2023-01-25T00:01:35.977Z,1035.43
2023-01-25T00:01:49.998Z,1035.42
2023-01-25T00:02:04.072Z,1035.41
2023-01-25T00:02:18.210Z,1035.41
2023-01-25T00:02:32.265Z,1035.40
2023-01-25T00:02:46.329Z,1035.40
2023-01-25T00:03:00.406Z,1035.40
2023-01-25T00:03:14.435Z,1035.39
2023-01-25T00:03:28.481Z,1035.39
2023-01-25T00:03:42.543Z,1035.39
2023-01-25T00:03:56.524Z,1035.39
2023-01-25T00:04:10.516Z,1035.39
2023-01-25T00:04:24.533Z,1035.37
2023-01-25T00:04:38.556Z,1035.38
2023-01-25T00:04:52.551Z,1035.39
2023-01-25T00:05:07.025Z,1035.39
2023-01-25T00:05:21.251Z,1035.39
2023-01-25T00:05:35.551Z,1035.40
2023-01-25T00:05:49.565Z,1035.40
2023-01-25T00:06:17.515Z,1035.40
2023-01-25T00:06:31.502Z,1035.39
2023-01-25T00:06:45.502Z,1035.39
2023-01-25T00:06:59.501Z,1035.39
2023-01-25T00:07:13.506Z,1035.39
2023-01-25T00:07:27.512Z,1035.38
2023-01-25T00:07:41.505Z,1035.38
2023-01-25T00:07:55.495Z,1035.38
2023-01-25T00:08:09.492Z,1035.38
2023-01-25T00:08:23.481Z,1035.38
2023-01-25T00:08:37.477Z,1035.38
2023-01-25T00:08:51.466Z,1035.38
2023-01-25T00:09:05.454Z,1035.38
2023-01-25T00:09:19.449Z,1035.38
2023-01-25T00:09:33.459Z,1035.38
2023-01-25T00:09:47.449Z,1035.37
2023-01-25T00:10:01.444Z,1035.37
2023-01-25T00:10:15.453Z,1035.37
2023-01-25T00:10:29.503Z,1035.37
2023-01-25T00:10:58.551Z,1035.37
2023-01-25T00:11:10.127Z,1035.37
2023-01-25T00:11:24.107Z,1035.36
2023-01-25T00:11:38.104Z,1035.36
2023-01-25T00:11:52.098Z,1035.36
2023-01-25T00:12:06.127Z,1035.37
2023-01-25T00:12:20.213Z,1035.38
2023-01-25T00:12:34.205Z,1035.36
2023-01-25T00:12:48.210Z,1035.36
2023-01-25T00:13:02.203Z,1035.35
2023-01-25T00:13:16.194Z,1035.36
2023-01-25T00:13:30.219Z,1035.37
2023-01-25T00:13:44.214Z,1035.37
2023-01-25T00:13:58.206Z,1035.38
2023-01-25T00:14:12.182Z,1035.39
2023-01-25T00:14:26.181Z,1035.39
2023-01-25T00:14:40.215Z,1035.39
2023-01-25T00:14:54.211Z,1035.39
2023-01-25T00:15:08.679Z,1035.40
2023-01-25T00:15:22.901Z,1035.40
2023-01-25T00:15:36.908Z,1035.40
2023-01-25T00:15:50.900Z,1035.39
2023-01-25T00:16:05.029Z,1035.39
2023-01-25T00:16:19.132Z,1035.39
2023-01-25T00:16:33.215Z,1035.38
2023-01-25T00:16:47.325Z,1035.36
2023-01-25T00:17:01.344Z,1035.37
2023-01-25T00:17:15.328Z,1035.37
2023-01-25T00:17:29.323Z,1035.37
2023-01-25T00:17:43.326Z,1035.37
2023-01-25T00:17:57.332Z,1035.37
2023-01-25T00:18:11.357Z,1035.38
2023-01-25T00:18:25.354Z,1035.37
2023-01-25T00:18:39.358Z,1035.37
2023-01-25T00:19:07.302Z,1035.36
2023-01-25T00:19:21.289Z,1035.36
2023-01-25T00:19:35.292Z,1035.36
2023-01-25T00:19:49.288Z,1035.36
2023-01-25T00:20:03.278Z,1035.36
2023-01-25T00:20:17.386Z,1035.36
2023-01-25T00:20:31.371Z,1035.36
2023-01-25T00:20:45.363Z,1035.37
2023-01-25T00:20:59.349Z,1035.37
2023-01-25T00:21:13.350Z,1035.37
2023-01-25T00:21:27.347Z,1035.37
2023-01-25T00:21:41.347Z,1035.36
2023-01-25T00:21:55.329Z,1035.36
2023-01-25T00:22:09.385Z,1035.35
2023-01-25T00:22:23.403Z,1035.34
2023-01-25T00:22:37.412Z,1035.35
2023-01-25T00:22:51.406Z,1035.34
2023-01-25T00:23:05.400Z,1035.33
2023-01-25T00:23:19.397Z,1035.33
2023-01-25T00:23:47.404Z,1035.33
2023-01-25T00:24:01.530Z,1035.33
2023-01-25T00:24:15.703Z,1035.32
2023-01-25T00:24:29.735Z,1035.32
2023-01-25T00:24:43.714Z,1035.31
2023-01-25T00:24:57.707Z,1035.30
2023-01-25T00:25:11.700Z,1035.30
2023-01-25T00:25:25.718Z,1035.29
2023-01-25T00:25:39.704Z,1035.29
2023-01-25T00:25:53.686Z,1035.28
2023-01-25T00:26:07.678Z,1035.28
2023-01-25T00:26:21.694Z,1035.27
2023-01-25T00:26:35.733Z,1035.27
2023-01-25T00:26:49.733Z,1035.26
2023-01-25T00:27:03.717Z,1035.26
2023-01-25T00:27:17.722Z,1035.26
2023-01-25T00:27:31.726Z,1035.26
2023-01-25T00:27:45.740Z,1035.26
2023-01-25T00:27:59.726Z,1035.27
2023-01-25T00:28:27.685Z,1035.27
2023-01-25T00:28:41.715Z,1035.27
2023-01-25T00:28:55.716Z,1035.28
2023-01-25T00:29:09.705Z,1035.27
2023-01-25T00:29:23.698Z,1035.25
2023-01-25T00:29:37.685Z,1035.25
2023-01-25T00:29:51.680Z,1035.25
2023-01-25T00:30:05.699Z,1035.25
2023-01-25T00:30:19.693Z,1035.25
2023-01-25T00:30:33.683Z,1035.25
2023-01-25T00:30:47.655Z,1035.25
2023-01-25T00:31:01.646Z,1035.25
2023-01-25T00:31:15.780Z,1035.24
2023-01-25T00:31:29.989Z,1035.24
2023-01-25T00:31:44.201Z,1035.24
2023-01-25T00:31:58.332Z,1035.24
2023-01-25T00:32:12.530Z,1035.24
2023-01-25T00:32:26.746Z,1035.24
2023-01-25T00:32:41.046Z,1035.24
2023-01-25T00:32:55.153Z,1035.24
2023-01-25T00:33:09.188Z,1035.24
2023-01-25T00:33:37.171Z,1035.24
2023-01-25T00:33:51.179Z,1035.24
2023-01-25T00:34:05.170Z,1035.24
2023-01-25T00:34:19.152Z,1035.24
2023-01-25T00:34:33.143Z,1035.25
2023-01-25T00:34:47.163Z,1035.26
2023-01-25T00:35:01.157Z,1035.26
2023-01-25T00:35:15.152Z,1035.26
2023-01-25T00:35:29.144Z,1035.26
2023-01-25T00:35:43.129Z,1035.27
2023-01-25T00:35:57.124Z,1035.27
2023-01-25T00:36:11.119Z,1035.28
2023-01-25T00:36:25.115Z,1035.28
2023-01-25T00:36:39.098Z,1035.28
2023-01-25T00:37:07.078Z,1035.28
2023-01-25T00:37:21.107Z,1035.29
2023-01-25T00:37:35.102Z,1035.29
2023-01-25T00:37:49.099Z,1035.29
2023-01-25T00:38:03.087Z,1035.30
2023-01-25T00:38:17.079Z,1035.29
2023-01-25T00:38:31.075Z,1035.28
2023-01-25T00:38:45.100Z,1035.28
2023-01-25T00:38:59.090Z,1035.28
2023-01-25T00:39:13.090Z,1035.27
2023-01-25T00:39:27.070Z,1035.27
2023-01-25T00:39:41.072Z,1035.27
2023-01-25T00:39:55.078Z,1035.28
2023-01-25T00:40:09.073Z,1035.28
2023-01-25T00:40:23.065Z,1035.29
2023-01-25T00:40:37.112Z,1035.30
2023-01-25T00:40:51.117Z,1035.30
2023-01-25T00:41:05.149Z,1035.30
2023-01-25T00:41:19.173Z,1035.29
2023-01-25T00:41:47.164Z,1035.29
2023-01-25T00:42:01.182Z,1035.29
2023-01-25T00:42:15.183Z,1035.28
2023-01-25T00:42:29.171Z,1035.29
2023-01-25T00:42:43.184Z,1035.29
2023-01-25T00:42:57.195Z,1035.29
2023-01-25T00:43:11.167Z,1035.30
2023-01-25T00:43:25.167Z,1035.31
2023-01-25T00:43:39.155Z,1035.32
2023-01-25T00:43:53.164Z,1035.31
2023-01-25T00:44:07.154Z,1035.31
2023-01-25T00:44:21.152Z,1035.30
2023-01-25T00:44:35.139Z,1035.29
2023-01-25T00:44:49.134Z,1035.29
2023-01-25T00:45:03.122Z,1035.29
2023-01-25T00:45:17.114Z,1035.29
2023-01-25T00:45:31.102Z,1035.29
2023-01-25T00:45:45.146Z,1035.28
2023-01-25T00:45:59.171Z,1035.27
2023-01-25T00:46:27.135Z,1035.26
2023-01-25T00:46:41.151Z,1035.26
2023-01-25T00:46:55.141Z,1035.26
2023-01-25T00:47:09.149Z,1035.26
2023-01-25T00:47:23.169Z,1035.25
2023-01-25T00:47:37.154Z,1035.25
2023-01-25T00:47:51.154Z,1035.25
2023-01-25T00:48:05.153Z,1035.25
2023-01-25T00:48:19.130Z,1035.24
2023-01-25T00:48:33.144Z,1035.24
2023-01-25T00:48:47.128Z,1035.23
2023-01-25T00:49:01.144Z,1035.23
2023-01-25T00:49:15.150Z,1035.22
2023-01-25T00:49:29.165Z,1035.22
2023-01-25T00:49:43.148Z,1035.22
2023-01-25T00:49:57.139Z,1035.22
2023-01-25T00:50:11.174Z,1035.22
2023-01-25T00:50:25.183Z,1035.22
2023-01-25T00:50:39.180Z,1035.22
2023-01-25T00:51:07.133Z,1035.21
2023-01-25T00:51:21.125Z,1035.21
2023-01-25T00:51:35.109Z,1035.21
2023-01-25T00:51:49.107Z,1035.21
2023-01-25T00:52:03.107Z,1035.21
2023-01-25T00:52:17.106Z,1035.21
2023-01-25T00:52:31.089Z,1035.20
2023-01-25T00:52:45.102Z,1035.20
2023-01-25T00:52:59.088Z,1035.20
2023-01-25T00:53:13.079Z,1035.19
2023-01-25T00:53:27.090Z,1035.19
2023-01-25T00:53:41.116Z,1035.19
2023-01-25T00:53:55.100Z,1035.19
2023-01-25T00:54:09.226Z,1035.18
2023-01-25T00:54:37.207Z,1035.17
2023-01-25T00:54:51.219Z,1035.17
2023-01-25T00:55:05.738Z,1035.17
2023-01-25T00:55:19.967Z,1035.17
2023-01-25T00:55:33.962Z,1035.17
2023-01-25T00:55:47.953Z,1035.17
2023-01-25T00:56:01.948Z,1035.18
2023-01-25T00:56:15.949Z,1035.18
2023-01-25T00:56:29.931Z,1035.18
2023-01-25T00:56:43.927Z,1035.18
2023-01-25T00:56:57.920Z,1035.18
2023-01-25T00:57:11.917Z,1035.19
2023-01-25T00:57:25.905Z,1035.19
2023-01-25T00:57:39.896Z,1035.18
2023-01-25T00:57:53.871Z,1035.18
2023-01-25T00:58:07.865Z,1035.18
2023-01-25T00:58:21.871Z,1035.17
2023-01-25T00:58:35.898Z,1035.17
2023-01-25T00:58:49.893Z,1035.17
2023-01-25T00:59:03.889Z,1035.17
2023-01-25T00:59:18.596Z,1035.17
2023-01-25T00:59:46.560Z,1035.16
2023-01-25T01:00:00.555Z,1035.15
2023-01-25T01:00:14.545Z,1035.15
2023-01-25T01:00:28.565Z,1035.15
2023-01-25T01:00:42.582Z,1035.15
2023-01-25T01:00:56.869Z,1035.15
2023-01-25T01:01:10.990Z,1035.14
2023-01-25T01:01:25.028Z,1035.14
2023-01-25T01:01:39.030Z,1035.14
2023-01-25T01:01:53.054Z,1035.14
2023-01-25T01:02:07.054Z,1035.13
2023-01-25T01:02:21.045Z,1035.13
2023-01-25T01:02:35.043Z,1035.13
2023-01-25T01:02:49.060Z,1035.13
2023-01-25T01:03:03.047Z,1035.13
2023-01-25T01:03:17.053Z,1035.13
2023-01-25T01:03:31.052Z,1035.12
2023-01-25T01:03:45.070Z,1035.12
2023-01-25T01:03:59.090Z,1035.13
2023-01-25T01:04:27.169Z,1035.12
2023-01-25T01:04:41.314Z,1035.13
2023-01-25T01:04:55.409Z,1035.13
2023-01-25T01:05:09.840Z,1035.13
2023-01-25T01:05:24.141Z,1035.12
2023-01-25T01:05:38.137Z,1035.11
2023-01-25T01:05:52.139Z,1035.11
2023-01-25T01:06:06.146Z,1035.10
2023-01-25T01:06:20.165Z,1035.10
2023-01-25T01:06:34.150Z,1035.09
2023-01-25T01:06:48.154Z,1035.08
2023-01-25T01:07:02.158Z,1035.08
2023-01-25T01:07:16.170Z,1035.07
2023-01-25T01:07:30.175Z,1035.08
2023-01-25T01:07:44.177Z,1035.08
2023-01-25T01:07:58.183Z,1035.08
2023-01-25T01:08:12.176Z,1035.08
2023-01-25T01:08:26.164Z,1035.08
2023-01-25T01:08:40.169Z,1035.08
2023-01-25T01:08:54.586Z,1035.08
2023-01-25T01:09:08.581Z,1035.08
2023-01-25T01:09:36.548Z,1035.08
2023-01-25T01:09:50.529Z,1035.08
2023-01-25T01:10:04.533Z,1035.07
2023-01-25T01:10:18.527Z,1035.07
2023-01-25T01:10:32.521Z,1035.06
2023-01-25T01:10:46.500Z,1035.06
2023-01-25T01:11:00.499Z,1035.05
2023-01-25T01:11:14.483Z,1035.05
2023-01-25T01:11:28.505Z,1035.05
2023-01-25T01:11:42.506Z,1035.05
2023-01-25T01:11:56.514Z,1035.06
2023-01-25T01:12:10.541Z,1035.06
2023-01-25T01:12:24.564Z,1035.06
2023-01-25T01:12:38.589Z,1035.07
2023-01-25T01:12:52.587Z,1035.07
2023-01-25T01:13:06.576Z,1035.07
2023-01-25T01:13:20.575Z,1035.06
2023-01-25T01:13:34.570Z,1035.06
2023-01-25T01:13:48.559Z,1035.05
2023-01-25T01:14:16.518Z,1035.04
2023-01-25T01:14:30.501Z,1035.04
2023-01-25T01:14:44.510Z,1035.04
2023-01-25T01:14:58.500Z,1035.03
2023-01-25T01:15:12.509Z,1035.03
2023-01-25T01:15:26.485Z,1035.02
2023-01-25T01:15:40.490Z,1035.02
2023-01-25T01:15:54.473Z,1035.02
2023-01-25T01:16:08.657Z,1035.02
2023-01-25T01:16:22.685Z,1035.02
2023-01-25T01:16:36.677Z,1035.02
2023-01-25T01:16:50.726Z,1035.02
2023-01-25T01:17:04.867Z,1035.02
2023-01-25T01:17:18.914Z,1035.02
2023-01-25T01:17:46.883Z,1035.02
2023-01-25T01:18:00.874Z,1035.01
2023-01-25T01:18:14.871Z,1035.02
2023-01-25T01:18:28.857Z,1035.02
2023-01-25T01:18:42.876Z,1035.02
2023-01-25T01:18:56.862Z,1035.02
2023-01-25T01:19:10.843Z,1035.02
2023-01-25T01:19:24.846Z,1035.02
2023-01-25T01:19:38.840Z,1035.02
2023-01-25T01:19:52.831Z,1035.02
2023-01-25T01:20:06.827Z,1035.01
2023-01-25T01:20:20.845Z,1035.01
2023-01-25T01:20:34.828Z,1035.01
2023-01-25T01:20:48.808Z,1035.01
2023-01-25T01:21:02.792Z,1035.00
2023-01-25T01:21:16.836Z,1034.99
2023-01-25T01:21:30.841Z,1035.00
2023-01-25T01:21:44.829Z,1035.00
2023-01-25T01:21:58.831Z,1035.00
2023-01-25T01:22:26.810Z,1035.00
2023-01-25T01:22:40.797Z,1035.01
2023-01-25T01:22:54.790Z,1035.01
2023-01-25T01:23:08.787Z,1035.01
2023-01-25T01:23:22.778Z,1035.01
2023-01-25T01:23:36.804Z,1035.01
2023-01-25T01:23:50.837Z,1035.01
2023-01-25T01:24:04.891Z,1035.01
2023-01-25T01:24:18.961Z,1035.01
2023-01-25T01:24:32.967Z,1035.01
2023-01-25T01:24:46.959Z,1035.01
2023-01-25T01:25:00.973Z,1035.00
2023-01-25T01:25:14.953Z,1035.00
2023-01-25T01:25:28.952Z,1035.00
2023-01-25T01:25:42.950Z,1035.00
2023-01-25T01:25:56.953Z,1035.01
2023-01-25T01:26:10.944Z,1035.01
2023-01-25T01:26:24.939Z,1035.01
2023-01-25T01:26:38.941Z,1035.00
2023-01-25T01:27:06.897Z,1035.00
2023-01-25T01:27:20.891Z,1035.01
2023-01-25T01:27:34.874Z,1035.01
2023-01-25T01:27:48.863Z,1035.02
2023-01-25T01:28:02.901Z,1035.02
2023-01-25T01:28:16.899Z,1035.02
2023-01-25T01:28:30.890Z,1035.02
2023-01-25T01:28:44.873Z,1035.02
2023-01-25T01:28:58.865Z,1035.03
2023-01-25T01:29:12.875Z,1035.03
2023-01-25T01:29:26.900Z,1035.03
2023-01-25T01:29:40.912Z,1035.03
2023-01-25T01:29:54.913Z,1035.02
2023-01-25T01:30:08.926Z,1035.02
2023-01-25T01:30:22.913Z,1035.02
2023-01-25T01:30:36.920Z,1035.02
2023-01-25T01:30:50.903Z,1035.01
2023-01-25T01:31:04.896Z,1035.01
2023-01-25T01:31:19.062Z,1034.99
2023-01-25T01:31:47.259Z,1034.99
2023-01-25T01:32:01.458Z,1034.99
2023-01-25T01:32:15.837Z,1034.99
2023-01-25T01:32:30.030Z,1034.99
2023-01-25T01:32:44.221Z,1035.00
2023-01-25T01:32:58.341Z,1035.01
2023-01-25T01:33:12.341Z,1035.01
2023-01-25T01:33:26.332Z,1035.02
2023-01-25T01:33:40.425Z,1035.02
2023-01-25T01:33:54.423Z,1035.03
2023-01-25T01:34:08.417Z,1035.03
2023-01-25T01:34:22.416Z,1035.03
2023-01-25T01:34:36.442Z,1035.03
2023-01-25T01:34:50.427Z,1035.03
2023-01-25T01:35:04.477Z,1035.02
2023-01-25T01:35:18.483Z,1035.01
2023-01-25T01:35:32.492Z,1035.01
2023-01-25T01:35:46.483Z,1035.00
2023-01-25T01:36:00.491Z,1035.00
2023-01-25T01:36:14.514Z,1034.99
2023-01-25T01:36:28.540Z,1034.99
2023-01-25T01:36:42.528Z,1034.99
2023-01-25T01:36:56.552Z,1034.99
2023-01-25T01:37:10.545Z,1034.99
2023-01-25T01:37:24.546Z,1034.98
2023-01-25T01:37:38.534Z,1034.98
2023-01-25T01:37:52.518Z,1034.96
2023-01-25T01:38:06.519Z,1034.96
2023-01-25T01:38:20.532Z,1034.96
2023-01-25T01:38:34.514Z,1034.96
2023-01-25T01:38:48.536Z,1034.95
2023-01-25T01:39:02.523Z,1034.94
2023-01-25T01:39:16.514Z,1034.94
2023-01-25T01:39:30.550Z,1034.94
2023-01-25T01:39:44.545Z,1034.94
2023-01-25T01:39:58.585Z,1034.94
2023-01-25T01:40:26.564Z,1034.93
2023-01-25T01:40:40.578Z,1034.93
2023-01-25T01:40:54.566Z,1034.93
2023-01-25T01:41:08.554Z,1034.93
2023-01-25T01:41:22.543Z,1034.93
2023-01-25T01:41:36.544Z,1034.93
2023-01-25T01:41:50.549Z,1034.93
2023-01-25T01:42:04.552Z,1034.93
2023-01-25T01:42:18.537Z,1034.93
2023-01-25T01:42:32.543Z,1034.93
2023-01-25T01:42:46.525Z,1034.94
2023-01-25T01:43:00.508Z,1034.94
2023-01-25T01:43:14.502Z,1034.93
2023-01-25T01:43:28.493Z,1034.93
2023-01-25T01:43:42.689Z,1034.93
2023-01-25T01:43:56.672Z,1034.93
2023-01-25T01:44:10.652Z,1034.93
2023-01-25T01:44:24.645Z,1034.93
2023-01-25T01:44:38.627Z,1034.93
2023-01-25T01:45:07.032Z,1034.94
2023-01-25T01:45:21.187Z,1034.94
2023-01-25T01:45:35.181Z,1034.94
2023-01-25T01:45:49.259Z,1034.95
2023-01-25T01:46:03.522Z,1034.95
2023-01-25T01:46:17.630Z,1034.95
2023-01-25T01:46:31.670Z,1034.95
2023-01-25T01:46:45.663Z,1034.95
2023-01-25T01:46:59.651Z,1034.94
2023-01-25T01:47:13.651Z,1034.95
2023-01-25T01:47:27.644Z,1034.95
2023-01-25T01:47:41.632Z,1034.93
2023-01-25T01:47:55.619Z,1034.94
2023-01-25T01:48:09.615Z,1034.93
2023-01-25T01:48:23.593Z,1034.93
2023-01-25T01:48:37.581Z,1034.93
2023-01-25T01:48:51.566Z,1034.93
2023-01-25T01:49:05.568Z,1034.93
2023-01-25T01:49:19.553Z,1034.93
2023-01-25T01:49:47.557Z,1034.92
2023-01-25T01:50:01.594Z,1034.92
2023-01-25T01:50:15.595Z,1034.91
2023-01-25T01:50:29.592Z,1034.91
2023-01-25T01:50:43.637Z,1034.92
2023-01-25T01:50:57.665Z,1034.91
2023-01-25T01:51:11.649Z,1034.91
2023-01-25T01:51:25.679Z,1034.92
2023-01-25T01:51:39.675Z,1034.92
2023-01-25T01:51:53.686Z,1034.93
2023-01-25T01:52:07.657Z,1034.93
2023-01-25T01:52:21.650Z,1034.93
2023-01-25T01:52:35.651Z,1034.93
2023-01-25T01:52:49.655Z,1034.93
2023-01-25T01:53:03.651Z,1034.93
2023-01-25T01:53:17.648Z,1034.93
2023-01-25T01:53:31.645Z,1034.93
2023-01-25T01:53:45.666Z,1034.93
2023-01-25T01:53:59.654Z,1034.93
2023-01-25T01:54:27.624Z,1034.92
2023-01-25T01:54:41.622Z,1034.91
2023-01-25T01:54:55.613Z,1034.91
2023-01-25T01:55:09.995Z,1034.91
2023-01-25T01:55:24.357Z,1034.90
2023-01-25T01:55:38.349Z,1034.90
2023-01-25T01:55:52.366Z,1034.90
2023-01-25T01:56:06.373Z,1034.90
2023-01-25T01:56:20.393Z,1034.91
2023-01-25T01:56:34.411Z,1034.90
2023-01-25T01:56:48.412Z,1034.90
2023-01-25T01:57:02.405Z,1034.91
2023-01-25T01:57:16.408Z,1034.91
2023-01-25T01:57:30.413Z,1034.91
2023-01-25T01:57:44.450Z,1034.91
2023-01-25T01:57:58.435Z,1034.91
2023-01-25T01:58:12.524Z,1034.91
2023-01-25T01:58:26.515Z,1034.90
2023-01-25T01:58:40.534Z,1034.90
2023-01-25T01:58:54.555Z,1034.90
2023-01-25T01:59:08.551Z,1034.90
2023-01-25T01:59:22.589Z,1034.90
2023-01-25T01:59:36.585Z,1034.90
2023-01-25T01:59:50.573Z,1034.89
2023-01-25T02:00:04.592Z,1034.89
2023-01-25T02:00:18.595Z,1034.88
2023-01-25T02:00:32.597Z,1034.88
2023-01-25T02:00:46.586Z,1034.88
2023-01-25T02:01:00.680Z,1034.88
2023-01-25T02:01:14.827Z,1034.87
2023-01-25T02:01:28.947Z,1034.87
2023-01-25T02:01:43.162Z,1034.87
2023-01-25T02:01:57.176Z,1034.87
2023-01-25T02:02:11.223Z,1034.87
2023-01-25T02:02:25.406Z,1034.88
2023-01-25T02:02:39.544Z,1034.88
2023-01-25T02:03:07.553Z,1034.89
2023-01-25T02:03:21.549Z,1034.89
2023-01-25T02:03:35.547Z,1034.89
2023-01-25T02:03:49.618Z,1034.89
2023-01-25T02:04:03.642Z,1034.89
2023-01-25T02:04:17.635Z,1034.89
2023-01-25T02:04:31.640Z,1034.89
2023-01-25T02:04:45.627Z,1034.89
2023-01-25T02:04:59.672Z,1034.89
2023-01-25T02:05:13.705Z,1034.89
2023-01-25T02:05:27.692Z,1034.89
2023-01-25T02:05:41.694Z,1034.89
2023-01-25T02:05:55.687Z,1034.89
2023-01-25T02:06:09.663Z,1034.89
2023-01-25T02:06:23.654Z,1034.88
2023-01-25T02:06:37.643Z,1034.88
2023-01-25T02:06:51.650Z,1034.88
2023-01-25T02:07:05.649Z,1034.88
2023-01-25T02:07:19.652Z,1034.88
2023-01-25T02:07:47.673Z,1034.87
2023-01-25T02:08:01.668Z,1034.87
2023-01-25T02:08:15.691Z,1034.88
2023-01-25T02:08:29.691Z,1034.88
2023-01-25T02:08:43.680Z,1034.88
2023-01-25T02:08:57.660Z,1034.88
2023-01-25T02:09:11.664Z,1034.89
2023-01-25T02:09:25.649Z,1034.89
2023-01-25T02:09:39.670Z,1034.90
2023-01-25T02:09:53.659Z,1034.90
2023-01-25T02:10:07.667Z,1034.91
2023-01-25T02:10:21.659Z,1034.91
2023-01-25T02:10:35.774Z,1034.91
2023-01-25T02:10:49.796Z,1034.92
2023-01-25T02:11:03.799Z,1034.92
2023-01-25T02:11:17.783Z,1034.93
2023-01-25T02:11:31.789Z,1034.93
2023-01-25T02:11:45.800Z,1034.94
2023-01-25T02:11:59.802Z,1034.94
2023-01-25T02:12:13.785Z,1034.94
2023-01-25T02:12:27.803Z,1034.94
2023-01-25T02:12:55.792Z,1034.95
2023-01-25T02:13:09.795Z,1034.95
2023-01-25T02:13:23.807Z,1034.95
2023-01-25T02:13:37.805Z,1034.95
2023-01-25T02:13:51.806Z,1034.95
2023-01-25T02:14:05.875Z,1034.95
2023-01-25T02:14:19.885Z,1034.96
2023-01-25T02:14:33.879Z,1034.95
2023-01-25T02:14:47.893Z,1034.96
2023-01-25T02:15:01.881Z,1034.95
2023-01-25T02:15:15.909Z,1034.95
2023-01-25T02:15:29.888Z,1034.95
2023-01-25T02:15:43.925Z,1034.94
2023-01-25T02:15:57.955Z,1034.94
2023-01-25T02:16:12.095Z,1034.94
2023-01-25T02:16:26.128Z,1034.93
2023-01-25T02:16:40.124Z,1034.93
2023-01-25T02:16:54.113Z,1034.93
2023-01-25T02:17:08.108Z,1034.92
2023-01-25T02:17:36.090Z,1034.90
2023-01-25T02:17:50.081Z,1034.90
2023-01-25T02:18:04.074Z,1034.90
2023-01-25T02:18:18.056Z,1034.89
2023-01-25T02:18:32.086Z,1034.89
2023-01-25T02:18:46.094Z,1034.89
2023-01-25T02:19:00.101Z,1034.88
2023-01-25T02:19:14.085Z,1034.87
2023-01-25T02:19:28.094Z,1034.88
2023-01-25T02:19:42.074Z,1034.87
2023-01-25T02:19:56.103Z,1034.87
2023-01-25T02:20:10.142Z,1034.87
2023-01-25T02:20:24.137Z,1034.87
2023-01-25T02:20:38.165Z,1034.86
2023-01-25T02:20:52.187Z,1034.86
2023-01-25T02:21:06.188Z,1034.86
2023-01-25T02:21:20.190Z,1034.86
2023-01-25T02:21:34.184Z,1034.86
2023-01-25T02:21:48.171Z,1034.86
2023-01-25T02:22:02.163Z,1034.86
2023-01-25T02:22:16.176Z,1034.86
2023-01-25T02:22:30.170Z,1034.87
2023-01-25T02:22:44.162Z,1034.87
2023-01-25T02:22:58.156Z,1034.88
2023-01-25T02:23:12.181Z,1034.88
2023-01-25T02:23:26.176Z,1034.89
2023-01-25T02:23:40.165Z,1034.90
2023-01-25T02:23:54.225Z,1034.91
2023-01-25T02:24:08.298Z,1034.92
2023-01-25T02:24:22.361Z,1034.92
2023-01-25T02:24:36.382Z,1034.93
2023-01-25T02:24:50.378Z,1034.94
2023-01-25T02:25:04.377Z,1034.94
2023-01-25T02:25:18.383Z,1034.95
2023-01-25T02:25:46.341Z,1034.96
2023-01-25T02:26:00.327Z,1034.96
2023-01-25T02:26:14.321Z,1034.95
2023-01-25T02:26:28.309Z,1034.96
2023-01-25T02:26:42.306Z,1034.96
2023-01-25T02:26:56.322Z,1034.96
2023-01-25T02:27:10.299Z,1034.97
2023-01-25T02:27:24.302Z,1034.97
2023-01-25T02:27:38.292Z,1034.97
2023-01-25T02:27:52.321Z,1034.97
2023-01-25T02:28:06.306Z,1034.97
2023-01-25T02:28:20.294Z,1034.97
2023-01-25T02:28:34.326Z,1034.98
2023-01-25T02:28:48.332Z,1034.98
2023-01-25T02:29:02.310Z,1034.98
2023-01-25T02:29:16.307Z,1034.98
2023-01-25T02:29:30.310Z,1034.98
2023-01-25T02:29:44.323Z,1034.99
2023-01-25T02:29:58.322Z,1034.99
2023-01-25T02:30:26.333Z,1034.98
2023-01-25T02:30:40.423Z,1034.98
2023-01-25T02:30:54.530Z,1034.99
2023-01-25T02:31:08.701Z,1034.99
2023-01-25T02:31:22.840Z,1034.99
2023-01-25T02:31:37.017Z,1034.98
2023-01-25T02:31:51.186Z,1034.98
2023-01-25T02:32:05.231Z,1034.98
2023-01-25T02:32:19.314Z,1034.98
2023-01-25T02:32:33.348Z,1034.98
2023-01-25T02:32:47.348Z,1034.98
2023-01-25T02:33:01.358Z,1034.98
2023-01-25T02:33:15.364Z,1034.99
2023-01-25T02:33:29.367Z,1034.98
2023-01-25T02:33:43.380Z,1034.97
2023-01-25T02:33:57.382Z,1034.96
2023-01-25T02:34:11.399Z,1034.97
2023-01-25T02:34:25.427Z,1034.97
2023-01-25T02:34:39.438Z,1034.98
2023-01-25T02:35:07.773Z,1034.96
2023-01-25T02:35:22.129Z,1034.96
2023-01-25T02:35:36.131Z,1034.96
2023-01-25T02:35:50.140Z,1034.95
2023-01-25T02:36:04.138Z,1034.95
2023-01-25T02:36:18.258Z,1034.94
2023-01-25T02:36:32.248Z,1034.94
2023-01-25T02:36:46.235Z,1034.93
2023-01-25T02:37:00.218Z,1034.94
2023-01-25T02:37:14.199Z,1034.94
2023-01-25T02:37:28.187Z,1034.94
2023-01-25T02:37:42.203Z,1034.94
2023-01-25T02:37:56.193Z,1034.94
2023-01-25T02:38:10.186Z,1034.93
2023-01-25T02:38:24.164Z,1034.92
2023-01-25T02:38:38.159Z,1034.92
2023-01-25T02:38:52.146Z,1034.91
2023-01-25T02:39:06.127Z,1034.91
2023-01-25T02:39:20.704Z,1034.90
2023-01-25T02:39:34.769Z,1034.90
2023-01-25T02:39:48.763Z,1034.90
2023-01-25T02:40:16.728Z,1034.90
2023-01-25T02:40:30.715Z,1034.90
2023-01-25T02:40:44.714Z,1034.89
2023-01-25T02:40:58.711Z,1034.89
2023-01-25T02:41:12.707Z,1034.89
2023-01-25T02:41:26.759Z,1034.89
2023-01-25T02:41:40.760Z,1034.88
2023-01-25T02:41:54.770Z,1034.88
2023-01-25T02:42:08.747Z,1034.88
2023-01-25T02:42:22.747Z,1034.88
2023-01-25T02:42:36.732Z,1034.88
2023-01-25T02:42:50.718Z,1034.88
2023-01-25T02:43:04.704Z,1034.88
2023-01-25T02:43:18.705Z,1034.88
2023-01-25T02:43:46.666Z,1034.89
2023-01-25T02:44:00.651Z,1034.89
2023-01-25T02:44:14.655Z,1034.89
2023-01-25T02:44:28.658Z,1034.89
2023-01-25T02:44:42.654Z,1034.88
2023-01-25T02:44:56.649Z,1034.89
2023-01-25T02:45:10.628Z,1034.88
2023-01-25T02:45:24.607Z,1034.88
2023-01-25T02:45:38.606Z,1034.88
2023-01-25T02:45:52.705Z,1034.88
2023-01-25T02:46:06.841Z,1034.88
2023-01-25T02:46:20.920Z,1034.87
2023-01-25T02:46:34.955Z,1034.88
2023-01-25T02:46:48.982Z,1034.88
2023-01-25T02:47:03.009Z,1034.87
2023-01-25T02:47:17.017Z,1034.87
2023-01-25T02:47:31.005Z,1034.87
2023-01-25T02:47:44.990Z,1034.87
2023-01-25T02:47:59.068Z,1034.87
2023-01-25T02:48:27.077Z,1034.87
2023-01-25T02:48:41.079Z,1034.87
2023-01-25T02:48:55.064Z,1034.87
2023-01-25T02:49:09.065Z,1034.86
2023-01-25T02:49:23.053Z,1034.87
2023-01-25T02:49:37.052Z,1034.86
2023-01-25T02:49:51.063Z,1034.87
2023-01-25T02:50:05.055Z,1034.87
2023-01-25T02:50:19.051Z,1034.88
2023-01-25T02:50:33.094Z,1034.88
2023-01-25T02:50:47.082Z,1034.89
2023-01-25T02:51:01.127Z,1034.89
2023-01-25T02:51:15.147Z,1034.88
2023-01-25T02:51:29.172Z,1034.89
2023-01-25T02:51:43.185Z,1034.89
2023-01-25T02:51:57.174Z,1034.89
2023-01-25T02:52:11.169Z,1034.88
2023-01-25T02:52:25.151Z,1034.88
2023-01-25T02:52:39.141Z,1034.89
2023-01-25T02:53:07.108Z,1034.89
2023-01-25T02:53:21.088Z,1034.89
2023-01-25T02:53:35.079Z,1034.89
2023-01-25T02:53:49.064Z,1034.89
2023-01-25T02:54:03.055Z,1034.89
2023-01-25T02:54:17.051Z,1034.89
2023-01-25T02:54:31.051Z,1034.89
2023-01-25T02:54:45.032Z,1034.89
2023-01-25T02:54:59.027Z,1034.89
2023-01-25T02:55:13.047Z,1034.89
2023-01-25T02:55:27.041Z,1034.89
2023-01-25T02:55:41.033Z,1034.88
2023-01-25T02:55:55.036Z,1034.88
2023-01-25T02:56:09.040Z,1034.88
2023-01-25T02:56:23.033Z,1034.88
2023-01-25T02:56:37.039Z,1034.87
2023-01-25T02:56:51.031Z,1034.87
2023-01-25T02:57:05.036Z,1034.87
2023-01-25T02:57:19.130Z,1034.86
2023-01-25T02:57:47.079Z,1034.85
2023-01-25T02:58:01.053Z,1034.85